createdAt,value
2022-12-12T00:01:43.409Z,85.90
2022-12-12T00:06:52.997Z,86.10
2022-12-12T00:12:02.659Z,86.46
2022-12-12T00:17:12.173Z,86.63
2022-12-12T00:22:21.845Z,86.82
2022-12-12T00:27:32.500Z,87.01
2022-12-12T00:32:42.146Z,87.24
2022-12-12T00:37:51.812Z,87.24
2022-12-12T00:43:01.499Z,87.26
2022-12-12T00:48:13.092Z,87.25
2022-12-12T00:53:23.630Z,87.39
2022-12-12T00:58:34.740Z,87.53
2022-12-12T01:03:45.867Z,87.44
2022-12-12T01:08:55.715Z,87.42
2022-12-12T01:14:06.039Z,87.40
2022-12-12T01:19:16.000Z,87.39
2022-12-12T01:24:25.739Z,87.32
2022-12-12T01:29:36.580Z,87.21
2022-12-12T01:34:46.362Z,87.00
2022-12-12T01:39:56.047Z,86.89
2022-12-12T01:45:06.544Z,86.83
2022-12-12T01:50:16.405Z,86.88
2022-12-12T01:55:28.604Z,86.82
2022-12-12T02:00:38.741Z,86.86
2022-12-12T02:05:56.694Z,86.79
2022-12-12T02:11:06.825Z,86.76
2022-12-12T02:16:30.784Z,86.69
2022-12-12T02:21:52.974Z,86.70
2022-12-12T02:27:37.239Z,86.75
2022-12-12T02:33:19.820Z,86.74
2022-12-12T02:38:39.002Z,86.70
2022-12-12T02:44:00.986Z,86.63
2022-12-12T02:49:20.285Z,86.60
2022-12-12T02:54:30.098Z,86.53
2022-12-12T02:59:44.115Z,86.43
2022-12-12T03:05:32.744Z,86.39
2022-12-12T03:10:57.057Z,86.30
2022-12-12T03:16:24.174Z,86.28
2022-12-12T03:21:47.044Z,86.14
2022-12-12T03:27:03.502Z,86.15
2022-12-12T03:32:19.571Z,86.11
2022-12-12T03:37:33.745Z,86.10
2022-12-12T03:42:48.589Z,86.09
2022-12-12T03:48:08.667Z,85.98
2022-12-12T03:53:24.214Z,85.93
2022-12-12T03:58:43.307Z,85.85
2022-12-12T04:04:01.195Z,85.81
2022-12-12T04:09:33.587Z,85.85
2022-12-12T04:15:11.249Z,85.72
2022-12-12T04:20:52.306Z,85.69
2022-12-12T04:26:29.413Z,85.64
2022-12-12T04:31:49.029Z,85.64
2022-12-12T04:36:59.372Z,85.69
2022-12-12T04:42:12.354Z,85.82
2022-12-12T04:47:24.786Z,85.89
2022-12-12T04:52:37.549Z,85.89
2022-12-12T04:57:54.382Z,86.05
2022-12-12T05:03:12.428Z,86.42
2022-12-12T05:08:29.492Z,86.78
2022-12-12T05:13:43.247Z,86.89
2022-12-12T05:18:53.108Z,86.79
2022-12-12T05:24:02.916Z,86.69
2022-12-12T05:29:12.671Z,86.74
2022-12-12T05:34:22.666Z,86.82
2022-12-12T05:39:32.503Z,86.84
2022-12-12T05:44:42.181Z,86.92
2022-12-12T05:49:52.485Z,86.96
2022-12-12T05:55:02.359Z,87.00
2022-12-12T06:00:15.302Z,87.08
2022-12-12T06:05:25.313Z,87.06
2022-12-12T06:10:35.126Z,87.03
2022-12-12T06:15:45.951Z,87.10
2022-12-12T06:21:05.171Z,87.12
2022-12-12T06:26:18.461Z,87.21
2022-12-12T06:31:28.537Z,87.31
2022-12-12T06:36:38.388Z,87.29
2022-12-12T06:41:48.074Z,87.37
2022-12-12T06:46:57.922Z,87.38
2022-12-12T06:52:08.125Z,87.36
2022-12-12T06:57:18.548Z,87.54
2022-12-12T07:02:30.200Z,87.68
2022-12-12T07:07:40.544Z,87.76
2022-12-12T07:12:55.979Z,87.86
2022-12-12T07:18:08.241Z,88.00
2022-12-12T07:23:18.552Z,88.00
2022-12-12T07:28:28.180Z,87.97
2022-12-12T07:33:43.716Z,87.94
2022-12-12T07:38:54.492Z,87.99
2022-12-12T07:44:05.043Z,88.03
2022-12-12T07:49:14.742Z,88.06
2022-12-12T07:54:25.087Z,88.07
2022-12-12T07:59:34.746Z,88.14
2022-12-12T08:04:44.660Z,88.27
2022-12-12T08:09:54.509Z,88.34
2022-12-12T08:15:04.320Z,88.31
2022-12-12T08:20:17.408Z,88.28
2022-12-12T08:25:27.218Z,88.22
2022-12-12T08:30:37.083Z,88.11
2022-12-12T08:35:47.055Z,88.00
2022-12-12T08:40:57.030Z,87.90
2022-12-12T08:46:16.756Z,87.78
2022-12-12T08:51:28.417Z,87.57
2022-12-12T08:56:38.448Z,87.39
2022-12-12T09:01:48.585Z,87.29
2022-12-12T09:07:00.409Z,87.00
2022-12-12T09:12:15.772Z,87.18
2022-12-12T09:17:25.531Z,86.93
2022-12-12T09:22:36.701Z,86.90
2022-12-12T09:27:46.847Z,86.83
2022-12-12T09:32:56.503Z,86.73
2022-12-12T09:38:12.447Z,86.61
2022-12-12T09:43:29.810Z,86.62
2022-12-12T09:48:48.909Z,86.65
2022-12-12T09:53:58.997Z,86.73
2022-12-12T09:59:17.395Z,86.72
2022-12-12T10:04:40.721Z,86.78
2022-12-12T10:10:17.046Z,86.92
2022-12-12T10:15:35.822Z,87.00
2022-12-12T10:20:52.525Z,87.07
2022-12-12T10:26:08.711Z,87.14
2022-12-12T10:31:35.655Z,87.14
2022-12-12T10:37:04.643Z,87.20
2022-12-12T10:42:25.423Z,87.26
2022-12-12T10:47:36.835Z,87.32
2022-12-12T10:52:46.731Z,87.19
2022-12-12T10:58:06.358Z,87.15
2022-12-12T11:03:31.338Z,87.11
2022-12-12T11:08:53.285Z,87.11
2022-12-12T11:14:05.317Z,87.14
2022-12-12T11:19:24.801Z,86.96
2022-12-12T11:24:40.089Z,86.89
2022-12-12T11:29:53.883Z,86.80
2022-12-12T11:35:08.423Z,86.68
2022-12-12T11:40:29.717Z,86.66
2022-12-12T11:45:39.654Z,86.59
2022-12-12T11:50:51.091Z,86.36
2022-12-12T11:56:25.374Z,86.28
2022-12-12T12:01:53.040Z,86.28
2022-12-12T12:07:30.374Z,86.69
2022-12-12T12:12:54.652Z,86.89
2022-12-12T12:18:37.591Z,86.96
2022-12-12T12:24:00.666Z,86.88
2022-12-12T12:30:06.351Z,86.73
2022-12-12T12:35:43.345Z,86.83
2022-12-12T12:41:22.904Z,87.03
2022-12-12T12:46:46.706Z,87.12
2022-12-12T12:52:08.033Z,87.39
2022-12-12T12:57:25.811Z,87.63
2022-12-12T13:02:49.646Z,87.83
2022-12-12T13:08:15.415Z,87.88
2022-12-12T13:13:32.445Z,88.11
2022-12-12T13:18:46.240Z,88.01
2022-12-12T13:24:03.934Z,88.11
2022-12-12T13:29:37.354Z,88.18
2022-12-12T13:34:53.126Z,88.51
2022-12-12T13:40:09.416Z,88.78
2022-12-12T13:45:43.705Z,88.82
2022-12-12T13:51:35.051Z,88.67
2022-12-12T13:56:47.475Z,88.69
2022-12-12T14:01:58.756Z,88.81
2022-12-12T14:07:19.372Z,89.13
2022-12-12T14:12:33.797Z,89.22
2022-12-12T14:17:52.408Z,89.30
2022-12-12T14:23:30.446Z,89.32
2022-12-12T14:28:40.632Z,89.38
2022-12-12T14:34:24.011Z,89.67
2022-12-12T14:39:52.699Z,89.82
2022-12-12T14:45:02.477Z,89.93
2022-12-12T14:50:20.612Z,90.30
2022-12-12T14:55:30.578Z,90.47
2022-12-12T15:00:50.010Z,90.60
2022-12-12T15:06:36.692Z,90.75
2022-12-12T15:11:47.635Z,90.57
2022-12-12T15:17:04.534Z,90.31
2022-12-12T15:22:24.778Z,90.57
2022-12-12T15:27:48.096Z,90.55
2022-12-12T15:33:04.307Z,90.61
2022-12-12T15:38:17.923Z,90.71
2022-12-12T15:43:29.967Z,90.76
2022-12-12T15:48:40.131Z,90.90
2022-12-12T15:53:55.648Z,90.99
2022-12-12T15:59:26.337Z,91.21
2022-12-12T16:04:35.979Z,91.44
2022-12-12T16:10:04.281Z,91.43
2022-12-12T16:15:36.725Z,91.00
2022-12-12T16:20:52.339Z,90.40
2022-12-12T16:26:02.450Z,89.91
2022-12-12T16:31:19.906Z,89.81
2022-12-12T16:36:29.612Z,89.91
2022-12-12T16:41:41.121Z,90.11
2022-12-12T16:46:51.877Z,90.20
2022-12-12T16:52:01.689Z,90.50
2022-12-12T16:57:11.552Z,90.46
2022-12-12T17:02:27.181Z,89.65
2022-12-12T17:07:37.163Z,89.21
2022-12-12T17:12:47.099Z,89.04
2022-12-12T17:17:57.529Z,89.26
2022-12-12T17:28:35.498Z,89.60
2022-12-12T17:33:50.751Z,89.22
2022-12-12T17:39:01.385Z,89.14
2022-12-12T17:44:11.686Z,89.14
2022-12-12T17:49:21.563Z,89.07
2022-12-12T17:54:31.440Z,89.16
2022-12-12T17:59:41.439Z,89.32
2022-12-12T18:04:52.305Z,89.56
2022-12-12T18:10:02.135Z,89.47
2022-12-12T18:15:14.140Z,89.36
2022-12-12T18:20:29.552Z,89.53
2022-12-12T18:25:42.664Z,89.89
2022-12-12T18:30:53.614Z,90.82
2022-12-12T18:36:09.185Z,91.13
2022-12-12T18:41:20.237Z,90.92
2022-12-12T18:46:35.903Z,90.95
2022-12-12T18:51:49.662Z,90.81
2022-12-12T18:56:59.381Z,90.53
2022-12-12T19:02:12.249Z,90.40
2022-12-12T19:07:22.280Z,90.00
2022-12-12T19:12:32.198Z,89.64
2022-12-12T19:17:43.074Z,89.22
2022-12-12T19:22:53.093Z,88.38
2022-12-12T19:28:03.688Z,88.17
2022-12-12T19:33:13.424Z,88.50
2022-12-12T19:38:24.655Z,90.09
2022-12-12T19:43:35.686Z,90.25
2022-12-12T19:48:45.804Z,90.05
2022-12-12T19:53:59.681Z,89.67
2022-12-12T19:59:10.000Z,90.11
2022-12-12T20:04:24.030Z,90.21
2022-12-12T20:09:35.936Z,90.26
2022-12-12T20:14:45.873Z,90.11
2022-12-12T20:19:55.924Z,89.47
2022-12-12T20:25:06.245Z,89.19
2022-12-12T20:30:17.410Z,88.70
2022-12-12T20:35:27.261Z,87.49
2022-12-12T20:40:40.755Z,87.11
2022-12-12T20:45:50.488Z,86.46
2022-12-12T20:51:02.637Z,85.54
2022-12-12T20:56:16.218Z,85.54
2022-12-12T21:01:30.079Z,85.51
2022-12-12T21:06:44.781Z,85.04
2022-12-12T21:11:54.839Z,85.04
2022-12-12T21:17:05.173Z,84.64
2022-12-12T21:22:14.893Z,84.63
2022-12-12T21:27:25.319Z,84.29
2022-12-12T21:32:35.061Z,84.28
2022-12-12T21:37:44.822Z,84.18
2022-12-12T21:42:54.538Z,84.00
2022-12-12T21:48:04.225Z,83.96
2022-12-12T21:53:31.125Z,83.89
2022-12-12T21:58:43.154Z,83.85
2022-12-12T22:03:53.433Z,83.80
2022-12-12T22:09:05.230Z,83.53
2022-12-12T22:14:15.299Z,83.43
2022-12-12T22:19:25.163Z,83.31
2022-12-12T22:24:35.065Z,83.32
2022-12-12T22:29:44.982Z,83.01
2022-12-12T22:34:54.628Z,83.21
2022-12-12T22:40:04.560Z,83.22
2022-12-12T22:45:15.405Z,82.86
2022-12-12T22:50:25.364Z,82.52
2022-12-12T22:55:36.671Z,82.76
2022-12-12T23:00:46.752Z,82.65
2022-12-12T23:06:02.762Z,82.44
2022-12-12T23:11:16.742Z,82.46
2022-12-12T23:16:27.777Z,82.46
2022-12-12T23:21:38.837Z,82.43
2022-12-12T23:26:51.623Z,82.60
2022-12-12T23:32:03.295Z,82.53
2022-12-12T23:37:13.300Z,82.56
2022-12-12T23:42:23.304Z,82.41
2022-12-12T23:47:33.254Z,82.10
2022-12-12T23:52:43.057Z,81.97
2022-12-12T23:57:52.942Z,81.72
